sensor_id;sensor_type;location;lat;lon;timestamp;P1;durP1;ratioP1;P2;durP2;ratioP2
51459;SDS011;37534;39.772;2.718;2023-06-22T00:00:49;26.08;;;10.80;;
51459;SDS011;37534;39.772;2.718;2023-06-22T00:03:15;22.48;;;11.27;;
51459;SDS011;37534;39.772;2.718;2023-06-22T00:05:43;40.15;;;11.02;;
51459;SDS011;37534;39.772;2.718;2023-06-22T00:08:08;32.38;;;11.13;;
51459;SDS011;37534;39.772;2.718;2023-06-22T00:10:34;24.48;;;10.98;;
51459;SDS011;37534;39.772;2.718;2023-06-22T00:13:00;52.88;;;12.00;;
51459;SDS011;37534;39.772;2.718;2023-06-22T00:15:25;26.75;;;12.57;;
51459;SDS011;37534;39.772;2.718;2023-06-22T00:17:51;29.15;;;11.25;;
51459;SDS011;37534;39.772;2.718;2023-06-22T00:20:17;43.67;;;12.70;;
51459;SDS011;37534;39.772;2.718;2023-06-22T00:22:43;31.42;;;10.68;;
51459;SDS011;37534;39.772;2.718;2023-06-22T00:25:09;25.63;;;10.38;;
51459;SDS011;37534;39.772;2.718;2023-06-22T00:27:35;20.98;;;10.05;;
51459;SDS011;37534;39.772;2.718;2023-06-22T00:30:01;27.05;;;10.27;;
51459;SDS011;37534;39.772;2.718;2023-06-22T00:32:27;28.63;;;10.65;;
51459;SDS011;37534;39.772;2.718;2023-06-22T00:34:53;23.98;;;10.13;;
51459;SDS011;37534;39.772;2.718;2023-06-22T00:37:18;25.55;;;10.55;;
51459;SDS011;37534;39.772;2.718;2023-06-22T00:39:44;28.33;;;10.23;;
51459;SDS011;37534;39.772;2.718;2023-06-22T00:42:09;27.83;;;10.77;;
51459;SDS011;37534;39.772;2.718;2023-06-22T00:44:35;21.98;;;9.60;;
51459;SDS011;37534;39.772;2.718;2023-06-22T00:47:01;27.55;;;9.50;;
51459;SDS011;37534;39.772;2.718;2023-06-22T00:49:28;34.42;;;11.77;;
51459;SDS011;37534;39.772;2.718;2023-06-22T00:51:54;24.13;;;9.75;;
51459;SDS011;37534;39.772;2.718;2023-06-22T00:54:20;37.42;;;10.30;;
51459;SDS011;37534;39.772;2.718;2023-06-22T00:56:55;20.83;;;9.57;;
51459;SDS011;37534;39.772;2.718;2023-06-22T00:59:23;16.60;;;9.70;;
51459;SDS011;37534;39.772;2.718;2023-06-22T01:01:51;25.48;;;9.23;;
51459;SDS011;37534;39.772;2.718;2023-06-22T01:04:16;31.23;;;10.68;;
51459;SDS011;37534;39.772;2.718;2023-06-22T01:06:45;29.50;;;10.85;;
51459;SDS011;37534;39.772;2.718;2023-06-22T01:09:22;27.42;;;10.13;;
51459;SDS011;37534;39.772;2.718;2023-06-22T01:11:57;17.30;;;9.25;;
51459;SDS011;37534;39.772;2.718;2023-06-22T01:17:14;30.00;;;11.40;;
51459;SDS011;37534;39.772;2.718;2023-06-22T01:19:45;26.55;;;10.45;;
51459;SDS011;37534;39.772;2.718;2023-06-22T01:22:25;35.83;;;11.65;;
51459;SDS011;37534;39.772;2.718;2023-06-22T01:27:39;29.20;;;9.88;;
51459;SDS011;37534;39.772;2.718;2023-06-22T01:32:43;24.75;;;10.32;;
51459;SDS011;37534;39.772;2.718;2023-06-22T01:35:10;33.67;;;11.80;;
51459;SDS011;37534;39.772;2.718;2023-06-22T01:37:37;28.23;;;11.05;;
51459;SDS011;37534;39.772;2.718;2023-06-22T01:40:04;36.35;;;11.48;;
51459;SDS011;37534;39.772;2.718;2023-06-22T01:42:31;28.48;;;11.38;;
51459;SDS011;37534;39.772;2.718;2023-06-22T01:44:57;26.50;;;10.25;;
51459;SDS011;37534;39.772;2.718;2023-06-22T01:47:24;34.15;;;11.48;;
51459;SDS011;37534;39.772;2.718;2023-06-22T01:49:50;28.98;;;11.50;;
51459;SDS011;37534;39.772;2.718;2023-06-22T01:52:19;48.72;;;11.88;;
51459;SDS011;37534;39.772;2.718;2023-06-22T01:54:46;43.22;;;12.55;;
51459;SDS011;37534;39.772;2.718;2023-06-22T01:57:12;27.75;;;11.35;;
51459;SDS011;37534;39.772;2.718;2023-06-22T01:59:59;25.20;;;10.20;;
51459;SDS011;37534;39.772;2.718;2023-06-22T02:02:49;22.58;;;11.25;;
51459;SDS011;37534;39.772;2.718;2023-06-22T02:05:19;22.27;;;9.43;;
51459;SDS011;37534;39.772;2.718;2023-06-22T02:07:46;28.98;;;10.57;;
51459;SDS011;37534;39.772;2.718;2023-06-22T02:10:25;21.83;;;10.70;;
51459;SDS011;37534;39.772;2.718;2023-06-22T02:12:53;34.25;;;11.40;;
51459;SDS011;37534;39.772;2.718;2023-06-22T02:15:19;21.92;;;11.65;;
51459;SDS011;37534;39.772;2.718;2023-06-22T02:17:46;16.02;;;9.27;;
51459;SDS011;37534;39.772;2.718;2023-06-22T02:20:13;26.95;;;10.50;;
51459;SDS011;37534;39.772;2.718;2023-06-22T02:22:39;26.88;;;10.60;;
51459;SDS011;37534;39.772;2.718;2023-06-22T02:25:05;22.80;;;11.77;;
51459;SDS011;37534;39.772;2.718;2023-06-22T02:27:31;30.38;;;11.48;;
51459;SDS011;37534;39.772;2.718;2023-06-22T02:29:57;20.15;;;10.55;;
51459;SDS011;37534;39.772;2.718;2023-06-22T02:32:22;26.52;;;10.73;;
51459;SDS011;37534;39.772;2.718;2023-06-22T02:34:48;27.65;;;10.18;;
51459;SDS011;37534;39.772;2.718;2023-06-22T02:37:14;23.30;;;9.90;;
51459;SDS011;37534;39.772;2.718;2023-06-22T02:39:40;22.13;;;11.02;;
51459;SDS011;37534;39.772;2.718;2023-06-22T02:42:06;37.72;;;9.10;;
51459;SDS011;37534;39.772;2.718;2023-06-22T02:44:31;26.55;;;9.30;;
51459;SDS011;37534;39.772;2.718;2023-06-22T02:46:57;21.20;;;9.85;;
51459;SDS011;37534;39.772;2.718;2023-06-22T02:49:23;23.13;;;9.75;;
51459;SDS011;37534;39.772;2.718;2023-06-22T02:51:49;16.08;;;9.50;;
51459;SDS011;37534;39.772;2.718;2023-06-22T02:54:15;24.50;;;10.95;;
51459;SDS011;37534;39.772;2.718;2023-06-22T02:56:41;19.38;;;9.35;;
51459;SDS011;37534;39.772;2.718;2023-06-22T02:59:09;18.05;;;10.13;;
51459;SDS011;37534;39.772;2.718;2023-06-22T03:01:36;24.95;;;9.77;;
51459;SDS011;37534;39.772;2.718;2023-06-22T03:04:07;23.15;;;10.95;;
51459;SDS011;37534;39.772;2.718;2023-06-22T03:06:34;25.02;;;11.15;;
51459;SDS011;37534;39.772;2.718;2023-06-22T03:09:04;18.52;;;10.63;;
51459;SDS011;37534;39.772;2.718;2023-06-22T03:11:31;20.67;;;9.43;;
51459;SDS011;37534;39.772;2.718;2023-06-22T03:13:57;27.75;;;9.95;;
51459;SDS011;37534;39.772;2.718;2023-06-22T03:16:22;19.45;;;10.27;;
51459;SDS011;37534;39.772;2.718;2023-06-22T03:18:48;15.45;;;8.73;;
51459;SDS011;37534;39.772;2.718;2023-06-22T03:21:13;15.65;;;8.48;;
51459;SDS011;37534;39.772;2.718;2023-06-22T03:23:40;14.85;;;9.07;;
51459;SDS011;37534;39.772;2.718;2023-06-22T03:26:06;14.90;;;9.27;;
51459;SDS011;37534;39.772;2.718;2023-06-22T03:28:32;15.85;;;8.88;;
51459;SDS011;37534;39.772;2.718;2023-06-22T03:30:57;18.95;;;8.63;;
51459;SDS011;37534;39.772;2.718;2023-06-22T03:33:24;19.45;;;9.73;;
51459;SDS011;37534;39.772;2.718;2023-06-22T03:35:49;29.77;;;10.10;;
51459;SDS011;37534;39.772;2.718;2023-06-22T03:38:15;32.92;;;11.73;;
51459;SDS011;37534;39.772;2.718;2023-06-22T03:40:41;31.67;;;10.63;;
51459;SDS011;37534;39.772;2.718;2023-06-22T03:43:07;32.08;;;10.40;;
51459;SDS011;37534;39.772;2.718;2023-06-22T03:45:33;21.25;;;9.27;;
51459;SDS011;37534;39.772;2.718;2023-06-22T03:47:58;34.72;;;11.48;;
51459;SDS011;37534;39.772;2.718;2023-06-22T03:50:25;22.15;;;9.57;;
51459;SDS011;37534;39.772;2.718;2023-06-22T03:52:50;27.48;;;9.60;;
51459;SDS011;37534;39.772;2.718;2023-06-22T03:55:17;20.13;;;9.65;;
51459;SDS011;37534;39.772;2.718;2023-06-22T03:57:44;13.82;;;7.97;;
51459;SDS011;37534;39.772;2.718;2023-06-22T04:00:10;20.27;;;9.98;;
51459;SDS011;37534;39.772;2.718;2023-06-22T04:02:36;23.90;;;10.98;;
51459;SDS011;37534;39.772;2.718;2023-06-22T04:05:01;22.05;;;9.95;;
51459;SDS011;37534;39.772;2.718;2023-06-22T04:07:27;23.10;;;9.45;;
51459;SDS011;37534;39.772;2.718;2023-06-22T04:09:52;21.95;;;10.48;;
51459;SDS011;37534;39.772;2.718;2023-06-22T04:12:18;27.08;;;9.65;;
51459;SDS011;37534;39.772;2.718;2023-06-22T04:14:44;20.45;;;11.43;;
51459;SDS011;37534;39.772;2.718;2023-06-22T04:17:09;18.20;;;11.32;;
51459;SDS011;37534;39.772;2.718;2023-06-22T04:19:35;24.25;;;10.02;;
51459;SDS011;37534;39.772;2.718;2023-06-22T04:22:00;41.92;;;11.25;;
51459;SDS011;37534;39.772;2.718;2023-06-22T04:24:26;45.35;;;12.45;;
51459;SDS011;37534;39.772;2.718;2023-06-22T04:26:51;18.70;;;9.63;;
51459;SDS011;37534;39.772;2.718;2023-06-22T04:29:19;25.60;;;10.15;;
51459;SDS011;37534;39.772;2.718;2023-06-22T04:31:46;24.73;;;10.50;;
51459;SDS011;37534;39.772;2.718;2023-06-22T04:34:16;18.13;;;9.63;;
51459;SDS011;37534;39.772;2.718;2023-06-22T04:36:41;17.80;;;10.00;;
51459;SDS011;37534;39.772;2.718;2023-06-22T04:39:08;23.45;;;11.07;;
51459;SDS011;37534;39.772;2.718;2023-06-22T04:41:35;31.80;;;10.98;;
51459;SDS011;37534;39.772;2.718;2023-06-22T04:44:08;22.33;;;9.90;;
51459;SDS011;37534;39.772;2.718;2023-06-22T04:46:34;17.33;;;10.15;;
51459;SDS011;37534;39.772;2.718;2023-06-22T04:49:03;19.05;;;9.73;;
51459;SDS011;37534;39.772;2.718;2023-06-22T04:51:36;32.22;;;11.20;;
51459;SDS011;37534;39.772;2.718;2023-06-22T04:54:05;41.17;;;10.98;;
51459;SDS011;37534;39.772;2.718;2023-06-22T04:56:32;21.52;;;9.75;;
51459;SDS011;37534;39.772;2.718;2023-06-22T04:58:58;19.50;;;10.48;;
51459;SDS011;37534;39.772;2.718;2023-06-22T05:01:24;29.05;;;11.00;;
51459;SDS011;37534;39.772;2.718;2023-06-22T05:03:50;21.27;;;10.60;;
51459;SDS011;37534;39.772;2.718;2023-06-22T05:06:23;21.50;;;10.38;;
51459;SDS011;37534;39.772;2.718;2023-06-22T05:08:53;20.20;;;9.98;;
51459;SDS011;37534;39.772;2.718;2023-06-22T05:11:28;31.30;;;10.65;;
51459;SDS011;37534;39.772;2.718;2023-06-22T05:13:53;24.77;;;9.82;;
51459;SDS011;37534;39.772;2.718;2023-06-22T05:16:20;18.15;;;9.27;;
51459;SDS011;37534;39.772;2.718;2023-06-22T05:18:52;17.38;;;9.57;;
51459;SDS011;37534;39.772;2.718;2023-06-22T05:21:21;19.92;;;10.60;;
51459;SDS011;37534;39.772;2.718;2023-06-22T05:23:48;30.05;;;10.38;;
51459;SDS011;37534;39.772;2.718;2023-06-22T05:26:13;20.00;;;10.88;;
51459;SDS011;37534;39.772;2.718;2023-06-22T05:28:39;19.73;;;10.30;;
51459;SDS011;37534;39.772;2.718;2023-06-22T05:31:04;25.55;;;11.30;;
51459;SDS011;37534;39.772;2.718;2023-06-22T05:33:30;34.20;;;11.60;;
51459;SDS011;37534;39.772;2.718;2023-06-22T05:35:55;18.95;;;11.38;;
51459;SDS011;37534;39.772;2.718;2023-06-22T05:38:21;35.22;;;12.23;;
51459;SDS011;37534;39.772;2.718;2023-06-22T05:40:46;21.55;;;10.65;;
51459;SDS011;37534;39.772;2.718;2023-06-22T05:43:12;26.35;;;10.80;;
51459;SDS011;37534;39.772;2.718;2023-06-22T05:45:37;25.65;;;10.68;;
51459;SDS011;37534;39.772;2.718;2023-06-22T05:48:04;23.10;;;10.32;;
51459;SDS011;37534;39.772;2.718;2023-06-22T05:50:30;30.65;;;12.57;;
51459;SDS011;37534;39.772;2.718;2023-06-22T05:52:56;38.28;;;12.05;;
51459;SDS011;37534;39.772;2.718;2023-06-22T05:55:21;28.30;;;10.93;;
51459;SDS011;37534;39.772;2.718;2023-06-22T05:57:47;17.90;;;10.35;;
51459;SDS011;37534;39.772;2.718;2023-06-22T06:00:12;18.98;;;10.15;;
51459;SDS011;37534;39.772;2.718;2023-06-22T06:02:38;17.05;;;9.52;;
51459;SDS011;37534;39.772;2.718;2023-06-22T06:05:09;28.05;;;11.23;;
51459;SDS011;37534;39.772;2.718;2023-06-22T06:07:36;26.85;;;10.55;;
51459;SDS011;37534;39.772;2.718;2023-06-22T06:10:02;22.40;;;11.18;;
51459;SDS011;37534;39.772;2.718;2023-06-22T06:12:31;27.80;;;12.88;;
51459;SDS011;37534;39.772;2.718;2023-06-22T06:14:56;38.42;;;14.65;;
51459;SDS011;37534;39.772;2.718;2023-06-22T06:17:22;29.20;;;12.23;;
51459;SDS011;37534;39.772;2.718;2023-06-22T06:19:47;22.35;;;11.30;;
51459;SDS011;37534;39.772;2.718;2023-06-22T06:22:13;26.38;;;10.43;;
51459;SDS011;37534;39.772;2.718;2023-06-22T06:24:39;28.05;;;10.73;;
51459;SDS011;37534;39.772;2.718;2023-06-22T06:27:04;20.60;;;10.00;;
51459;SDS011;37534;39.772;2.718;2023-06-22T06:29:30;29.27;;;12.15;;
51459;SDS011;37534;39.772;2.718;2023-06-22T06:31:56;29.55;;;10.85;;
51459;SDS011;37534;39.772;2.718;2023-06-22T06:34:22;25.48;;;11.32;;
51459;SDS011;37534;39.772;2.718;2023-06-22T06:36:47;34.03;;;16.88;;
51459;SDS011;37534;39.772;2.718;2023-06-22T06:39:13;37.42;;;15.45;;
51459;SDS011;37534;39.772;2.718;2023-06-22T06:41:38;29.88;;;11.90;;
51459;SDS011;37534;39.772;2.718;2023-06-22T06:44:04;23.88;;;11.30;;
51459;SDS011;37534;39.772;2.718;2023-06-22T06:46:29;35.67;;;14.90;;
51459;SDS011;37534;39.772;2.718;2023-06-22T06:48:55;33.03;;;17.02;;
51459;SDS011;37534;39.772;2.718;2023-06-22T06:51:22;47.63;;;19.73;;
51459;SDS011;37534;39.772;2.718;2023-06-22T06:53:50;30.77;;;11.90;;
51459;SDS011;37534;39.772;2.718;2023-06-22T06:56:16;22.55;;;10.73;;
51459;SDS011;37534;39.772;2.718;2023-06-22T06:58:41;23.08;;;8.80;;
51459;SDS011;37534;39.772;2.718;2023-06-22T07:01:07;22.08;;;9.88;;
51459;SDS011;37534;39.772;2.718;2023-06-22T07:03:33;33.70;;;18.60;;
51459;SDS011;37534;39.772;2.718;2023-06-22T07:05:59;37.03;;;16.85;;
51459;SDS011;37534;39.772;2.718;2023-06-22T07:08:25;38.85;;;14.50;;
51459;SDS011;37534;39.772;2.718;2023-06-22T07:10:51;51.42;;;13.35;;
51459;SDS011;37534;39.772;2.718;2023-06-22T07:13:17;34.30;;;11.95;;
51459;SDS011;37534;39.772;2.718;2023-06-22T07:15:43;30.75;;;13.55;;
51459;SDS011;37534;39.772;2.718;2023-06-22T07:18:08;25.23;;;12.27;;
51459;SDS011;37534;39.772;2.718;2023-06-22T07:20:34;40.85;;;19.67;;
51459;SDS011;37534;39.772;2.718;2023-06-22T07:22:59;43.92;;;17.08;;
51459;SDS011;37534;39.772;2.718;2023-06-22T07:25:25;31.20;;;11.65;;
51459;SDS011;37534;39.772;2.718;2023-06-22T07:28:01;34.53;;;14.50;;
51459;SDS011;37534;39.772;2.718;2023-06-22T07:30:28;48.10;;;21.00;;
51459;SDS011;37534;39.772;2.718;2023-06-22T07:32:54;51.67;;;21.50;;
51459;SDS011;37534;39.772;2.718;2023-06-22T07:35:20;46.53;;;16.65;;
51459;SDS011;37534;39.772;2.718;2023-06-22T07:37:45;16.38;;;10.15;;
51459;SDS011;37534;39.772;2.718;2023-06-22T07:40:11;26.42;;;10.55;;
51459;SDS011;37534;39.772;2.718;2023-06-22T07:42:37;37.92;;;25.08;;
51459;SDS011;37534;39.772;2.718;2023-06-22T07:45:03;45.13;;;26.35;;
51459;SDS011;37534;39.772;2.718;2023-06-22T07:47:31;24.90;;;11.75;;
51459;SDS011;37534;39.772;2.718;2023-06-22T07:50:00;21.83;;;9.10;;
51459;SDS011;37534;39.772;2.718;2023-06-22T07:52:26;29.77;;;11.75;;
51459;SDS011;37534;39.772;2.718;2023-06-22T07:54:52;23.23;;;9.45;;
51459;SDS011;37534;39.772;2.718;2023-06-22T07:57:18;37.03;;;17.88;;
51459;SDS011;37534;39.772;2.718;2023-06-22T07:59:44;18.52;;;9.10;;
51459;SDS011;37534;39.772;2.718;2023-06-22T08:02:10;21.23;;;9.48;;
51459;SDS011;37534;39.772;2.718;2023-06-22T08:04:35;29.55;;;9.27;;
51459;SDS011;37534;39.772;2.718;2023-06-22T08:07:01;22.85;;;8.70;;
51459;SDS011;37534;39.772;2.718;2023-06-22T08:09:30;22.77;;;8.73;;
51459;SDS011;37534;39.772;2.718;2023-06-22T08:11:57;22.17;;;8.15;;
51459;SDS011;37534;39.772;2.718;2023-06-22T08:14:27;25.17;;;8.88;;
51459;SDS011;37534;39.772;2.718;2023-06-22T08:16:52;19.45;;;8.93;;
51459;SDS011;37534;39.772;2.718;2023-06-22T08:19:18;28.48;;;11.43;;
51459;SDS011;37534;39.772;2.718;2023-06-22T08:21:44;21.38;;;9.02;;
51459;SDS011;37534;39.772;2.718;2023-06-22T08:24:09;23.42;;;9.02;;
51459;SDS011;37534;39.772;2.718;2023-06-22T08:26:35;17.33;;;7.10;;
51459;SDS011;37534;39.772;2.718;2023-06-22T08:29:05;16.15;;;7.90;;
51459;SDS011;37534;39.772;2.718;2023-06-22T08:31:31;34.75;;;14.43;;
51459;SDS011;37534;39.772;2.718;2023-06-22T08:33:59;24.88;;;10.77;;
51459;SDS011;37534;39.772;2.718;2023-06-22T08:36:25;32.47;;;13.10;;
51459;SDS011;37534;39.772;2.718;2023-06-22T08:38:50;19.35;;;7.20;;
51459;SDS011;37534;39.772;2.718;2023-06-22T08:41:16;25.85;;;7.97;;
51459;SDS011;37534;39.772;2.718;2023-06-22T08:43:42;17.67;;;8.68;;
51459;SDS011;37534;39.772;2.718;2023-06-22T08:46:09;17.35;;;7.38;;
51459;SDS011;37534;39.772;2.718;2023-06-22T08:48:35;19.38;;;8.75;;
51459;SDS011;37534;39.772;2.718;2023-06-22T08:51:01;16.38;;;6.97;;
51459;SDS011;37534;39.772;2.718;2023-06-22T08:53:27;23.67;;;7.40;;
51459;SDS011;37534;39.772;2.718;2023-06-22T08:55:53;17.83;;;7.05;;
51459;SDS011;37534;39.772;2.718;2023-06-22T08:58:18;27.23;;;13.02;;
51459;SDS011;37534;39.772;2.718;2023-06-22T09:00:45;14.73;;;6.93;;
51459;SDS011;37534;39.772;2.718;2023-06-22T09:03:10;17.23;;;6.30;;
51459;SDS011;37534;39.772;2.718;2023-06-22T09:05:37;21.08;;;6.93;;
51459;SDS011;37534;39.772;2.718;2023-06-22T09:08:02;21.40;;;7.85;;
51459;SDS011;37534;39.772;2.718;2023-06-22T09:10:28;20.75;;;8.35;;
51459;SDS011;37534;39.772;2.718;2023-06-22T09:12:54;22.05;;;8.30;;
51459;SDS011;37534;39.772;2.718;2023-06-22T09:15:19;23.63;;;8.02;;
51459;SDS011;37534;39.772;2.718;2023-06-22T09:17:45;20.02;;;7.85;;
51459;SDS011;37534;39.772;2.718;2023-06-22T09:20:11;18.38;;;8.55;;
51459;SDS011;37534;39.772;2.718;2023-06-22T09:22:37;18.05;;;8.35;;
51459;SDS011;37534;39.772;2.718;2023-06-22T09:25:03;20.35;;;7.30;;
51459;SDS011;37534;39.772;2.718;2023-06-22T09:27:29;14.25;;;8.00;;
51459;SDS011;37534;39.772;2.718;2023-06-22T09:29:55;19.92;;;7.40;;
51459;SDS011;37534;39.772;2.718;2023-06-22T09:32:20;13.05;;;6.72;;
51459;SDS011;37534;39.772;2.718;2023-06-22T09:34:46;17.23;;;6.78;;
51459;SDS011;37534;39.772;2.718;2023-06-22T09:37:11;18.90;;;7.22;;
51459;SDS011;37534;39.772;2.718;2023-06-22T09:39:37;18.90;;;7.72;;
51459;SDS011;37534;39.772;2.718;2023-06-22T09:42:03;22.17;;;7.10;;
51459;SDS011;37534;39.772;2.718;2023-06-22T09:44:30;19.75;;;6.40;;
51459;SDS011;37534;39.772;2.718;2023-06-22T09:46:56;18.55;;;6.75;;
51459;SDS011;37534;39.772;2.718;2023-06-22T09:49:22;12.85;;;5.90;;
51459;SDS011;37534;39.772;2.718;2023-06-22T09:51:47;13.23;;;5.80;;
51459;SDS011;37534;39.772;2.718;2023-06-22T09:54:15;6.95;;;4.90;;
51459;SDS011;37534;39.772;2.718;2023-06-22T09:56:41;13.23;;;5.07;;
51459;SDS011;37534;39.772;2.718;2023-06-22T09:59:07;8.75;;;4.32;;
51459;SDS011;37534;39.772;2.718;2023-06-22T10:01:32;11.10;;;4.35;;
51459;SDS011;37534;39.772;2.718;2023-06-22T10:03:58;11.82;;;4.35;;
51459;SDS011;37534;39.772;2.718;2023-06-22T10:06:23;7.97;;;4.88;;
51459;SDS011;37534;39.772;2.718;2023-06-22T10:08:50;12.93;;;4.00;;
51459;SDS011;37534;39.772;2.718;2023-06-22T10:11:16;9.35;;;4.15;;
51459;SDS011;37534;39.772;2.718;2023-06-22T10:13:41;7.38;;;4.93;;
51459;SDS011;37534;39.772;2.718;2023-06-22T10:16:07;12.68;;;6.22;;
51459;SDS011;37534;39.772;2.718;2023-06-22T10:18:32;9.93;;;4.90;;
51459;SDS011;37534;39.772;2.718;2023-06-22T10:20:58;7.90;;;3.97;;
51459;SDS011;37534;39.772;2.718;2023-06-22T10:23:23;11.60;;;4.05;;
51459;SDS011;37534;39.772;2.718;2023-06-22T10:25:49;8.40;;;4.20;;
51459;SDS011;37534;39.772;2.718;2023-06-22T10:28:14;5.88;;;3.25;;
51459;SDS011;37534;39.772;2.718;2023-06-22T10:30:41;5.38;;;3.05;;
51459;SDS011;37534;39.772;2.718;2023-06-22T10:33:09;2.45;;;2.17;;
51459;SDS011;37534;39.772;2.718;2023-06-22T10:35:36;4.22;;;2.53;;
51459;SDS011;37534;39.772;2.718;2023-06-22T10:38:04;3.65;;;2.70;;
51459;SDS011;37534;39.772;2.718;2023-06-22T10:40:30;4.15;;;2.80;;
51459;SDS011;37534;39.772;2.718;2023-06-22T10:42:56;3.88;;;2.42;;
51459;SDS011;37534;39.772;2.718;2023-06-22T10:45:22;4.07;;;2.72;;
51459;SDS011;37534;39.772;2.718;2023-06-22T10:47:47;5.35;;;3.15;;
51459;SDS011;37534;39.772;2.718;2023-06-22T10:50:13;5.97;;;3.03;;
51459;SDS011;37534;39.772;2.718;2023-06-22T10:52:39;3.55;;;2.70;;
51459;SDS011;37534;39.772;2.718;2023-06-22T10:55:06;4.95;;;3.75;;
51459;SDS011;37534;39.772;2.718;2023-06-22T10:57:32;5.30;;;3.30;;
51459;SDS011;37534;39.772;2.718;2023-06-22T10:59:57;4.07;;;2.88;;
51459;SDS011;37534;39.772;2.718;2023-06-22T11:02:23;4.53;;;2.83;;
51459;SDS011;37534;39.772;2.718;2023-06-22T11:04:49;3.78;;;2.40;;
51459;SDS011;37534;39.772;2.718;2023-06-22T11:07:15;9.15;;;2.67;;
51459;SDS011;37534;39.772;2.718;2023-06-22T11:09:42;3.53;;;2.90;;
51459;SDS011;37534;39.772;2.718;2023-06-22T11:12:08;14.10;;;3.80;;
51459;SDS011;37534;39.772;2.718;2023-06-22T11:14:34;4.88;;;2.60;;
51459;SDS011;37534;39.772;2.718;2023-06-22T11:16:59;3.60;;;2.42;;
51459;SDS011;37534;39.772;2.718;2023-06-22T11:19:25;3.83;;;2.17;;
51459;SDS011;37534;39.772;2.718;2023-06-22T11:21:50;6.75;;;2.28;;
51459;SDS011;37534;39.772;2.718;2023-06-22T11:24:16;2.45;;;2.10;;
51459;SDS011;37534;39.772;2.718;2023-06-22T11:26:42;3.40;;;2.30;;
51459;SDS011;37534;39.772;2.718;2023-06-22T11:29:08;4.38;;;2.13;;
51459;SDS011;37534;39.772;2.718;2023-06-22T11:31:34;2.42;;;1.88;;
51459;SDS011;37534;39.772;2.718;2023-06-22T11:34:00;5.32;;;2.30;;
51459;SDS011;37534;39.772;2.718;2023-06-22T11:36:26;5.63;;;2.58;;
51459;SDS011;37534;39.772;2.718;2023-06-22T11:38:52;3.10;;;2.63;;
51459;SDS011;37534;39.772;2.718;2023-06-22T11:41:18;4.00;;;1.90;;
51459;SDS011;37534;39.772;2.718;2023-06-22T11:43:44;4.22;;;2.70;;
51459;SDS011;37534;39.772;2.718;2023-06-22T11:46:09;5.38;;;2.90;;
51459;SDS011;37534;39.772;2.718;2023-06-22T11:48:35;5.28;;;3.08;;
51459;SDS011;37534;39.772;2.718;2023-06-22T11:51:01;4.68;;;2.40;;
51459;SDS011;37534;39.772;2.718;2023-06-22T11:53:28;5.53;;;2.90;;
51459;SDS011;37534;39.772;2.718;2023-06-22T11:55:53;5.38;;;3.03;;
51459;SDS011;37534;39.772;2.718;2023-06-22T11:58:20;10.57;;;2.88;;
51459;SDS011;37534;39.772;2.718;2023-06-22T12:00:46;7.60;;;3.03;;
51459;SDS011;37534;39.772;2.718;2023-06-22T12:03:12;3.95;;;2.25;;
51459;SDS011;37534;39.772;2.718;2023-06-22T12:05:37;7.53;;;3.35;;
51459;SDS011;37534;39.772;2.718;2023-06-22T12:08:03;8.10;;;3.17;;
51459;SDS011;37534;39.772;2.718;2023-06-22T12:10:29;6.80;;;3.47;;
51459;SDS011;37534;39.772;2.718;2023-06-22T12:12:55;3.30;;;2.88;;
51459;SDS011;37534;39.772;2.718;2023-06-22T12:15:22;4.85;;;2.47;;
51459;SDS011;37534;39.772;2.718;2023-06-22T12:17:48;5.05;;;3.28;;
51459;SDS011;37534;39.772;2.718;2023-06-22T12:20:14;5.78;;;3.15;;
51459;SDS011;37534;39.772;2.718;2023-06-22T12:22:40;7.35;;;3.33;;
51459;SDS011;37534;39.772;2.718;2023-06-22T12:25:06;3.55;;;2.95;;
51459;SDS011;37534;39.772;2.718;2023-06-22T12:27:35;6.60;;;3.08;;
51459;SDS011;37534;39.772;2.718;2023-06-22T12:30:01;7.93;;;3.42;;
51459;SDS011;37534;39.772;2.718;2023-06-22T12:32:27;3.80;;;2.70;;
51459;SDS011;37534;39.772;2.718;2023-06-22T12:34:53;4.05;;;2.78;;
51459;SDS011;37534;39.772;2.718;2023-06-22T12:37:18;4.18;;;3.35;;
51459;SDS011;37534;39.772;2.718;2023-06-22T12:39:44;10.85;;;3.75;;
51459;SDS011;37534;39.772;2.718;2023-06-22T12:42:10;4.82;;;3.30;;
51459;SDS011;37534;39.772;2.718;2023-06-22T12:44:37;9.25;;;3.00;;
51459;SDS011;37534;39.772;2.718;2023-06-22T12:47:04;9.73;;;3.63;;
51459;SDS011;37534;39.772;2.718;2023-06-22T12:49:30;5.40;;;3.30;;
51459;SDS011;37534;39.772;2.718;2023-06-22T12:51:55;9.95;;;3.17;;
51459;SDS011;37534;39.772;2.718;2023-06-22T12:54:21;9.00;;;4.10;;
51459;SDS011;37534;39.772;2.718;2023-06-22T12:56:46;7.63;;;3.83;;
51459;SDS011;37534;39.772;2.718;2023-06-22T12:59:12;7.85;;;4.25;;
51459;SDS011;37534;39.772;2.718;2023-06-22T13:01:37;4.43;;;3.35;;
51459;SDS011;37534;39.772;2.718;2023-06-22T13:04:03;6.72;;;3.50;;
51459;SDS011;37534;39.772;2.718;2023-06-22T13:06:29;7.63;;;3.08;;
51459;SDS011;37534;39.772;2.718;2023-06-22T13:08:54;4.32;;;3.78;;
51459;SDS011;37534;39.772;2.718;2023-06-22T13:11:20;3.63;;;2.60;;
51459;SDS011;37534;39.772;2.718;2023-06-22T13:13:46;5.95;;;3.28;;
51459;SDS011;37534;39.772;2.718;2023-06-22T13:16:11;5.28;;;2.55;;
51459;SDS011;37534;39.772;2.718;2023-06-22T13:18:37;8.70;;;3.25;;
51459;SDS011;37534;39.772;2.718;2023-06-22T13:21:03;3.55;;;2.63;;
51459;SDS011;37534;39.772;2.718;2023-06-22T13:23:29;4.63;;;2.90;;
51459;SDS011;37534;39.772;2.718;2023-06-22T13:25:55;4.95;;;3.17;;
51459;SDS011;37534;39.772;2.718;2023-06-22T13:28:21;3.70;;;2.80;;
51459;SDS011;37534;39.772;2.718;2023-06-22T13:30:47;5.55;;;3.08;;
51459;SDS011;37534;39.772;2.718;2023-06-22T13:33:16;4.63;;;2.88;;
51459;SDS011;37534;39.772;2.718;2023-06-22T13:35:42;4.38;;;2.88;;
51459;SDS011;37534;39.772;2.718;2023-06-22T13:38:07;3.85;;;2.72;;
51459;SDS011;37534;39.772;2.718;2023-06-22T13:40:36;4.53;;;2.60;;
51459;SDS011;37534;39.772;2.718;2023-06-22T13:43:05;5.18;;;2.90;;
51459;SDS011;37534;39.772;2.718;2023-06-22T13:45:31;4.72;;;2.42;;
51459;SDS011;37534;39.772;2.718;2023-06-22T13:47:57;7.68;;;3.10;;
51459;SDS011;37534;39.772;2.718;2023-06-22T13:50:23;12.23;;;3.15;;
51459;SDS011;37534;39.772;2.718;2023-06-22T13:52:48;7.25;;;3.20;;
51459;SDS011;37534;39.772;2.718;2023-06-22T13:55:14;3.72;;;2.63;;
51459;SDS011;37534;39.772;2.718;2023-06-22T13:57:40;5.03;;;2.88;;
51459;SDS011;37534;39.772;2.718;2023-06-22T14:00:06;5.18;;;3.17;;
51459;SDS011;37534;39.772;2.718;2023-06-22T14:02:37;5.00;;;2.97;;
51459;SDS011;37534;39.772;2.718;2023-06-22T14:05:03;4.80;;;2.88;;
51459;SDS011;37534;39.772;2.718;2023-06-22T14:07:29;6.38;;;2.78;;
51459;SDS011;37534;39.772;2.718;2023-06-22T14:09:54;2.80;;;2.40;;
51459;SDS011;37534;39.772;2.718;2023-06-22T14:12:20;7.55;;;2.80;;
51459;SDS011;37534;39.772;2.718;2023-06-22T14:14:45;6.63;;;2.63;;
51459;SDS011;37534;39.772;2.718;2023-06-22T14:17:11;7.88;;;3.58;;
51459;SDS011;37534;39.772;2.718;2023-06-22T14:19:36;4.78;;;2.90;;
51459;SDS011;37534;39.772;2.718;2023-06-22T14:22:02;6.82;;;2.97;;
51459;SDS011;37534;39.772;2.718;2023-06-22T14:24:28;4.70;;;3.25;;
51459;SDS011;37534;39.772;2.718;2023-06-22T14:26:54;4.35;;;2.88;;
51459;SDS011;37534;39.772;2.718;2023-06-22T14:29:21;5.35;;;2.65;;
51459;SDS011;37534;39.772;2.718;2023-06-22T14:31:47;8.10;;;3.75;;
51459;SDS011;37534;39.772;2.718;2023-06-22T14:34:13;4.55;;;3.00;;
51459;SDS011;37534;39.772;2.718;2023-06-22T14:36:39;4.38;;;2.83;;